This is the latest recevied weather packets stored in our database for station/object KD2FKI. If no packets are shown the sender has not sent any weather packets the latest 10 day(s).
| Time | Temp. | Humidity | Pressure | Rain* | Wind** | Luminosity | Snow |
|---|---|---|---|---|---|---|---|
| 1788136523 | 71° F | 90% | - | 0 in | - | - | - |
| 1788135936 | 71° F | 90% | - | 0.26 in | - | - | - |
| 1788135335 | 72° F | 90% | - | 0.64 in | - | - | - |
| 1788134733 | 72° F | 90% | - | 0.74 in | - | - | - |
| 1788134148 | 72° F | 89% | - | 0.74 in | - | - | - |
| 1788133530 | 73° F | 88% | - | 0.74 in | - | - | - |
| 1788132927 | 73° F | 88% | - | 0.74 in | - | - | - |
| 1788132323 | 75° F | 86% | - | 0.48 in | - | - | - |
| 1788131720 | 79° F | 76% | - | 0.1 in | - | - | - |
| 1788131136 | 83° F | 66% | - | 0 in | - | - | - |
| 1788130534 | 83° F | 68% | - | 0 in | - | - | - |
| 1788129933 | 84° F | 67% | - | 0 in | - | - | - |
| 1788129330 | 85° F | 65% | - | 0 in | - | - | - |
| 1788128727 | 86° F | 63% | - | 0 in | - | - | - |
| 1788128125 | 86° F | 62% | - | 0 in | - | - | - |
| 1788127523 | 87° F | 60% | - | 0 in | - | - | - |
| 1788126920 | 89° F | 58% | - | 0 in | - | - | - |
| 1788126337 | 89° F | 57% | - | 0 in | - | - | - |
| 1788125736 | 89° F | 57% | - | 0 in | - | - | - |
| 1788125132 | 89° F | 56% | - | 0 in | - | - | - |
| 1788124530 | 89° F | 57% | - | 0 in | - | - | - |
| 1788123927 | 90° F | 56% | - | 0 in | - | - | - |
| 1788123325 | 90° F | 56% | - | 0 in | - | - | - |
| 1788122724 | 90° F | 56% | - | 0 in | - | - | - |
| 1788122123 | 90° F | 55% | - | 0 in | - | - | - |
* Rain latest hour (hover to see other rain measurements)
** Current wind speed in m/s (hover to see current wind gust speed)